Terminal Aerodrome Forecast
Issued by NWS

Current Version | Previous Version | Graphics & Text | Print | Product List | Glossary On
Versions: 1 2 3 4 5 6 7 8 9 10 11 12 13 14 15 16 17 18
000
FTUS41 KPBZ 290526
TAFHLG
TAF
KHLG 290526Z 2906/3006 VRB03KT P6SM BKN250
     FM290800 00000KT 5SM BR BKN250
     FM291000 02003KT 2SM BR BKN040
     FM291400 03005KT P6SM BKN250=

USA.gov is the U.S. government's official web portal to all federal, state and local government web resources and services.